Time;durP1;ratioP1;P1;durP2;ratioP2;P2;SDS_P1;SDS_P2;PMS_P1;PMS_P2;Temp;Humidity;BMP_temperature;BMP_pressure;BME280_temperature;BME280_humidity;BME280_pressure;Samples;Min_cycle;Max_cycle;Signal;HPM_P1;HPM_P2
2022/09/24 00:01:39;;;;;;;6.40;3.17;;;;;;;14.37;84.54;101346.94;5052308;27;96767;-32
2022/09/24 00:04:07;;;;;;;4.40;2.50;;;;;;;14.30;84.88;101340.16;5034208;27;96781;-30
2022/09/24 00:06:35;;;;;;;5.30;2.97;;;;;;;14.28;84.71;101342.09;5034074;27;100908;-29
2022/09/24 00:09:01;;;;;;;5.10;3.00;;;;;;;14.23;84.64;101333.38;5052374;27;98222;-30
2022/09/24 00:11:27;;;;;;;7.78;3.28;;;;;;;14.20;84.94;101339.88;5052691;27;96486;-29
2022/09/24 00:13:55;;;;;;;5.45;2.90;;;;;;;14.24;84.37;101346.88;5034043;27;96859;-29
2022/09/24 00:16:22;;;;;;;4.80;2.60;;;;;;;14.23;85.05;101341.56;5033737;27;101528;-30
2022/09/24 00:18:47;;;;;;;7.10;3.38;;;;;;;14.19;84.31;101338.16;5034230;27;100796;-32
2022/09/24 00:21:22;;;;;;;7.90;3.88;;;;;;;14.17;84.70;101329.22;5051980;27;96520;-30
2022/09/24 00:23:54;;;;;;;6.68;3.63;;;;;;;14.22;85.15;101326.16;5034495;27;96912;-30
2022/09/24 00:29:05;;;;;;;7.45;3.50;;;;;;;14.26;85.21;101324.13;5052181;27;97026;-30
2022/09/24 00:31:31;;;;;;;6.28;3.53;;;;;;;14.24;84.17;101316.03;5052476;27;96679;-29
2022/09/24 00:33:57;;;;;;;6.80;3.15;;;;;;;14.23;84.82;101317.03;5052266;27;96787;-30
2022/09/24 00:36:22;;;;;;;5.28;2.97;;;;;;;14.23;85.07;101317.03;5033886;27;101183;-30
2022/09/24 00:38:53;;;;;;;6.40;3.40;;;;;;;14.19;84.76;101307.31;5051830;27;99463;-29
2022/09/24 00:41:20;;;;;;;7.57;3.80;;;;;;;14.17;85.63;101312.88;5033830;27;96665;-30
2022/09/24 00:43:47;;;;;;;7.07;3.28;;;;;;;14.17;85.02;101306.56;5033779;27;96812;-30
2022/09/24 00:46:35;;;;;;;6.57;3.28;;;;;;;14.20;84.64;101309.06;5033715;27;100982;-29
2022/09/24 00:49:11;;;;;;;6.50;3.45;;;;;;;14.17;84.42;101306.56;5044077;27;99053;-30
2022/09/24 00:51:38;;;;;;;7.80;3.38;;;;;;;14.18;84.83;101311.00;5033309;27;96562;-30
2022/09/24 00:54:08;;;;;;;8.85;4.13;;;;;;;14.18;84.77;101308.28;5033397;27;97101;-30
2022/09/24 00:56:36;;;;;;;12.27;4.32;;;;;;;14.19;84.81;101305.47;5033353;27;100874;-29
2022/09/24 00:59:05;;;;;;;5.47;3.47;;;;;;;14.14;84.99;101312.22;5033482;27;101149;-29
2022/09/24 01:01:31;;;;;;;10.07;3.58;;;;;;;14.12;84.97;101306.00;5051949;27;96583;-29
2022/09/24 01:03:59;;;;;;;9.48;4.40;;;;;;;14.14;84.62;101301.31;5033380;27;96848;-29
2022/09/24 01:06:25;;;;;;;8.30;4.00;;;;;;;14.16;85.00;101311.13;5035516;27;99148;-30
2022/09/24 01:08:52;;;;;;;7.10;4.13;;;;;;;14.14;84.35;101304.91;5037340;27;100741;-30
2022/09/24 01:11:44;;;;;;;6.88;3.67;;;;;;;14.09;85.09;101309.81;5036938;27;96674;-30
2022/09/24 01:14:25;;;;;;;5.70;3.10;;;;;;;14.07;85.20;101310.91;5054807;27;96557;-31
2022/09/24 01:17:20;;;;;;;8.68;4.00;;;;;;;14.07;85.08;101302.72;5036054;27;99030;-30
2022/09/24 01:19:51;;;;;;;7.55;3.63;;;;;;;14.05;83.99;101300.09;5054982;27;97241;-30
2022/09/24 01:22:31;;;;;;;7.85;3.55;;;;;;;14.03;85.09;101296.59;5055263;27;96590;-30
2022/09/24 01:25:12;;;;;;;8.63;3.45;;;;;;;14.05;84.95;101291.06;5055053;27;96705;-29
2022/09/24 01:27:43;;;;;;;7.60;3.88;;;;;;;13.99;85.22;101298.69;5054738;27;99537;-30
2022/09/24 01:30:11;;;;;;;6.63;3.45;;;;;;;14.00;85.19;101292.25;5036099;27;101049;-30
2022/09/24 01:32:48;;;;;;;8.43;3.63;;;;;;;14.01;85.17;101291.28;5036655;27;96630;-29
2022/09/24 01:35:20;;;;;;;8.88;3.92;;;;;;;13.99;85.61;101290.50;5037139;27;96636;-29
2022/09/24 01:38:00;;;;;;;6.40;3.67;;;;;;;14.00;85.29;101288.66;5036249;27;99096;-29
2022/09/24 01:40:27;;;;;;;7.03;3.30;;;;;;;13.98;85.31;101276.97;5036336;27;101161;-30
2022/09/24 01:42:55;;;;;;;8.20;3.97;;;;;;;14.00;85.04;101277.75;5035868;27;97138;-30
2022/09/24 01:45:21;;;;;;;7.07;3.60;;;;;;;13.99;86.44;101266.00;5036488;27;96845;-30
2022/09/24 01:47:47;;;;;;;9.65;4.53;;;;;;;13.98;85.33;101275.13;5054808;27;97701;-29
2022/09/24 01:50:15;;;;;;;7.85;3.83;;;;;;;13.92;86.26;101266.50;5054400;27;97891;-29
2022/09/24 01:53:06;;;;;;;6.40;3.30;;;;;;;13.96;85.21;101263.47;5053140;27;97450;-29
2022/09/24 01:55:41;;;;;;;7.63;3.92;;;;;;;13.93;84.52;101266.41;5036419;27;96806;-29
2022/09/24 01:58:10;;;;;;;7.95;4.00;;;;;;;13.90;86.34;101260.31;5036224;27;101589;-29
2022/09/24 02:00:40;;;;;;;8.27;3.85;;;;;;;13.90;85.66;101260.31;5036113;27;100772;-29
2022/09/24 02:03:13;;;;;;;7.97;3.60;;;;;;;13.91;85.48;101259.31;5036095;27;96712;-29
2022/09/24 02:05:39;;;;;;;6.35;3.25;;;;;;;13.92;84.72;101256.50;5054649;27;97231;-31
2022/09/24 02:08:14;;;;;;;8.43;3.38;;;;;;;13.95;85.25;101255.41;5054005;27;97512;-30
2022/09/24 02:11:03;;;;;;;9.95;3.83;;;;;;;13.94;85.57;101246.38;5036067;27;100988;-29
2022/09/24 02:13:38;;;;;;;7.38;3.67;;;;;;;13.92;85.46;101231.09;5054414;27;96778;-30
2022/09/24 02:16:05;;;;;;;7.15;3.47;;;;;;;13.90;85.32;101235.81;5035794;27;96841;-29
2022/09/24 02:18:38;;;;;;;8.60;3.80;;;;;;;13.89;85.85;101232.19;5035601;27;101231;-30
2022/09/24 02:21:09;;;;;;;5.78;3.42;;;;;;;13.89;86.01;101229.47;5035457;27;101183;-29
2022/09/24 02:23:37;;;;;;;7.53;4.15;;;;;;;13.88;85.57;101225.00;5035562;27;98321;-29
2022/09/24 02:26:04;;;;;;;6.38;3.53;;;;;;;13.89;85.54;101231.31;5036082;27;96793;-30
2022/09/24 02:28:31;;;;;;;7.40;4.03;;;;;;;13.87;85.57;101226.00;5035731;27;100548;-29
2022/09/24 02:31:03;;;;;;;8.63;4.43;;;;;;;13.86;85.40;101224.22;5035496;27;101086;-29
2022/09/24 02:36:14;;;;;;;5.93;2.78;;;;;;;13.81;86.20;101227.28;5054507;27;96608;-30
2022/09/24 02:38:42;;;;;;;7.20;3.60;;;;;;;13.84;85.78;101223.47;5035390;27;100854;-29
2022/09/24 02:41:07;;;;;;;10.55;3.83;;;;;;;13.84;86.18;101219.88;5053709;27;97973;-29
2022/09/24 02:43:34;;;;;;;7.13;3.88;;;;;;;13.85;85.88;101219.78;5053885;27;96599;-29
2022/09/24 02:46:00;;;;;;;9.00;3.95;;;;;;;13.86;85.93;101224.22;5035610;27;96723;-30
2022/09/24 02:48:25;;;;;;;13.30;4.50;;;;;;;13.84;85.68;101220.75;5035002;27;100921;-29
2022/09/24 02:50:51;;;;;;;6.25;3.60;;;;;;;13.87;85.49;101223.28;5054042;27;97731;-29
2022/09/24 02:53:16;;;;;;;8.02;4.07;;;;;;;13.91;85.56;101224.78;5053805;27;96419;-32
2022/09/24 02:55:42;;;;;;;11.77;5.05;;;;;;;13.96;85.21;101225.31;5053883;27;96852;-30
2022/09/24 02:58:07;;;;;;;6.43;3.67;;;;;;;13.91;85.68;101222.06;5053220;27;97855;-29
2022/09/24 03:00:32;;;;;;;7.30;4.28;;;;;;;13.92;85.05;101212.94;5053540;27;105916;-29
2022/09/24 03:02:58;;;;;;;10.48;4.22;;;;;;;13.93;85.35;101227.41;5053291;27;96684;-29
2022/09/24 03:05:23;;;;;;;7.13;3.88;;;;;;;13.93;85.18;101227.41;5053354;27;96865;-29
2022/09/24 03:07:49;;;;;;;10.20;4.57;;;;;;;13.95;85.56;101222.72;5053066;27;99266;-29
2022/09/24 03:10:15;;;;;;;7.93;4.35;;;;;;;13.96;86.76;101219.00;5034765;27;100807;-29
2022/09/24 03:12:41;;;;;;;9.63;4.15;;;;;;;13.96;85.46;101217.16;5053218;27;96609;-29
2022/09/24 03:15:06;;;;;;;7.28;4.25;;;;;;;13.98;85.31;101215.19;5035443;27;96806;-30
2022/09/24 03:17:32;;;;;;;10.35;4.43;;;;;;;13.98;85.07;101220.66;5053179;27;97528;-29
2022/09/24 03:19:57;;;;;;;10.95;4.85;;;;;;;13.99;85.30;101211.53;5052620;27;97648;-30
2022/09/24 03:22:22;;;;;;;8.05;4.43;;;;;;;14.03;85.33;101218.47;5053181;27;96623;-29
2022/09/24 03:24:48;;;;;;;10.32;5.07;;;;;;;13.99;85.26;101211.53;5052978;27;96970;-29
2022/09/24 03:27:13;;;;;;;12.43;4.97;;;;;;;14.00;85.21;101210.53;5052423;27;107687;-29
2022/09/24 03:32:22;;;;;;;10.20;4.28;;;;;;;14.07;84.69;101207.38;5053231;27;96573;-29
2022/09/24 03:34:47;;;;;;;9.13;4.55;;;;;;;14.02;85.18;101208.56;5052847;27;96519;-29
2022/09/24 03:37:13;;;;;;;9.27;4.60;;;;;;;14.01;85.45;101208.66;5053066;27;98363;-29
2022/09/24 03:39:38;;;;;;;10.48;4.90;;;;;;;14.01;85.33;101212.28;5053385;27;97780;-29
2022/09/24 03:42:03;;;;;;;8.45;4.45;;;;;;;14.00;84.88;101201.50;5052557;27;105348;-30
2022/09/24 03:44:29;;;;;;;10.95;5.60;;;;;;;14.02;84.99;101213.16;5052798;27;96922;-30
2022/09/24 03:46:54;;;;;;;9.82;4.90;;;;;;;14.00;85.41;101199.63;5051843;27;99465;-32
2022/09/24 03:49:20;;;;;;;9.23;5.05;;;;;;;14.06;85.07;101208.34;5052733;27;106850;-30
2022/09/24 03:51:45;;;;;;;8.60;5.10;;;;;;;14.05;84.97;101207.47;5052599;27;96533;-29
2022/09/24 03:54:11;;;;;;;11.57;5.53;;;;;;;14.01;85.62;101204.13;5052660;27;99751;-29
2022/09/24 03:56:36;;;;;;;10.43;5.20;;;;;;;13.96;86.94;101203.53;5052740;27;97896;-29
2022/09/24 03:59:02;;;;;;;9.00;4.80;;;;;;;13.91;86.12;101197.53;5052818;27;97751;-30
2022/09/24 04:01:31;;;;;;;8.88;4.57;;;;;;;13.94;86.23;101210.06;5052657;27;96722;-32
2022/09/24 04:03:58;;;;;;;12.00;5.90;;;;;;;13.94;86.00;101208.25;5035230;27;96571;-29
2022/09/24 04:06:25;;;;;;;12.50;5.65;;;;;;;13.96;86.18;101206.25;5033995;27;100893;-29
2022/09/24 04:08:51;;;;;;;10.82;5.32;;;;;;;13.98;85.83;101201.59;5052186;27;99321;-29
2022/09/24 04:11:16;;;;;;;10.63;5.25;;;;;;;13.99;86.04;101206.06;5051832;27;96738;-30
2022/09/24 04:13:42;;;;;;;12.18;6.03;;;;;;;14.03;85.60;101213.03;5052377;27;96787;-29
2022/09/24 04:16:07;;;;;;;11.60;5.72;;;;;;;13.99;85.80;101202.44;5052404;27;97854;-30
2022/09/24 04:18:32;;;;;;;12.85;6.05;;;;;;;14.02;85.47;101205.84;5052368;27;98281;-29
2022/09/24 04:20:59;;;;;;;10.43;5.93;;;;;;;14.06;85.47;101200.16;5052353;27;96688;-31
2022/09/24 04:23:25;;;;;;;9.50;4.72;;;;;;;14.05;85.48;101195.72;5033925;27;96858;-31
2022/09/24 04:25:50;;;;;;;11.43;6.07;;;;;;;14.07;85.66;101194.63;5033940;27;100563;-30
2022/09/24 04:28:16;;;;;;;11.82;6.10;;;;;;;14.09;85.35;101197.25;5052559;27;106022;-29
2022/09/24 04:30:41;;;;;;;13.75;5.72;;;;;;;14.10;85.31;101194.41;5052077;27;96813;-29
2022/09/24 04:33:07;;;;;;;8.32;4.65;;;;;;;14.09;85.91;101194.53;5052335;27;98351;-31
2022/09/24 04:35:34;;;;;;;12.18;6.07;;;;;;;14.10;85.64;101193.53;5033218;27;100930;-29
2022/09/24 04:38:01;;;;;;;11.80;6.25;;;;;;;14.09;85.50;101192.66;5033825;27;98875;-30
2022/09/24 04:40:27;;;;;;;13.38;6.35;;;;;;;14.09;85.08;101189.09;5034647;27;96597;-29
2022/09/24 04:42:53;;;;;;;14.45;7.15;;;;;;;14.09;85.61;101195.41;5055608;27;96821;-30
2022/09/24 04:45:19;;;;;;;12.98;6.07;;;;;;;14.10;85.72;101199.84;5037047;27;101048;-29
2022/09/24 04:47:51;;;;;;;12.10;5.70;;;;;;;14.11;85.83;101198.00;5055528;27;97921;-29
2022/09/24 04:50:17;;;;;;;13.70;7.03;;;;;;;14.12;85.18;101194.31;5037208;27;96652;-29
2022/09/24 04:52:42;;;;;;;13.20;6.55;;;;;;;14.12;85.34;101194.31;5037782;27;96846;-29
2022/09/24 04:55:08;;;;;;;12.80;6.60;;;;;;;14.12;85.52;101192.44;5055539;27;98427;-29
2022/09/24 04:57:35;;;;;;;12.90;6.22;;;;;;;14.16;85.50;101199.44;5036803;27;98834;-29
2022/09/24 05:00:04;;;;;;;13.05;6.88;;;;;;;14.16;85.16;101202.16;5055144;27;96726;-29
2022/09/24 05:02:30;;;;;;;12.10;6.63;;;;;;;14.16;85.19;101195.84;5036950;27;98218;-30
2022/09/24 05:04:55;;;;;;;15.18;6.90;;;;;;;14.18;85.30;101199.28;5055008;27;99314;-30
2022/09/24 05:07:20;;;;;;;14.85;7.07;;;;;;;14.18;85.19;101199.28;5054906;27;110631;-29
2022/09/24 05:09:46;;;;;;;13.32;5.78;;;;;;;14.19;85.28;101201.06;5055735;27;96569;-29
2022/09/24 05:12:12;;;;;;;12.48;6.32;;;;;;;14.20;85.40;101202.78;5055205;27;96746;-29
2022/09/24 05:14:37;;;;;;;10.77;6.35;;;;;;;14.21;85.29;101210.88;5054842;27;99495;-29
2022/09/24 05:17:02;;;;;;;15.52;6.70;;;;;;;14.22;85.12;101206.28;5055564;27;97768;-30
2022/09/24 05:19:28;;;;;;;11.85;5.88;;;;;;;14.22;85.02;101209.00;5054660;27;99452;-30
2022/09/24 05:21:53;;;;;;;14.68;6.38;;;;;;;14.23;85.00;101210.78;5036888;27;96771;-29
2022/09/24 05:24:18;;;;;;;17.05;6.88;;;;;;;14.24;85.44;101215.22;5054207;27;99256;-29
2022/09/24 05:29:27;;;;;;;14.15;7.68;;;;;;;14.22;85.00;101211.72;5055048;27;96556;-32
2022/09/24 05:31:53;;;;;;;16.98;7.22;;;;;;;14.22;85.26;101206.28;5055566;27;96813;-29
2022/09/24 05:34:18;;;;;;;16.45;7.18;;;;;;;14.24;85.46;101210.63;5054323;27;105189;-30
2022/09/24 05:36:44;;;;;;;13.57;7.10;;;;;;;14.23;85.37;101213.50;5054777;27;97795;-29
2022/09/24 05:39:10;;;;;;;18.58;7.43;;;;;;;14.26;85.29;101213.25;5055065;27;96516;-30
2022/09/24 05:41:36;;;;;;;11.27;6.28;;;;;;;14.25;85.13;101214.22;5036653;27;96972;-29
2022/09/24 05:44:02;;;;;;;15.98;6.88;;;;;;;14.23;84.94;101211.63;5036312;27;101473;-29
2022/09/24 05:46:28;;;;;;;14.20;6.82;;;;;;;14.29;84.99;101217.63;5054759;27;97778;-30
2022/09/24 05:48:54;;;;;;;15.30;6.95;;;;;;;14.25;85.37;101214.22;5053964;27;96576;-30
2022/09/24 05:51:19;;;;;;;14.02;6.53;;;;;;;14.26;85.34;101216.00;5035772;27;96974;-30
2022/09/24 05:53:45;;;;;;;13.77;6.32;;;;;;;14.26;85.17;101218.72;5054574;27;97385;-29
2022/09/24 05:56:10;;;;;;;16.33;7.15;;;;;;;14.26;85.51;101220.56;5053792;27;105044;-29
2022/09/24 05:58:35;;;;;;;15.48;6.35;;;;;;;14.27;85.56;101219.56;5054652;27;96761;-29
2022/09/24 06:01:01;;;;;;;16.55;6.78;;;;;;;14.28;85.35;101222.22;5054405;27;96950;-29
2022/09/24 06:03:28;;;;;;;13.55;5.80;;;;;;;14.30;85.25;101222.06;5054066;27;99241;-29
2022/09/24 06:05:55;;;;;;;13.57;5.97;;;;;;;14.27;85.41;101223.16;5036340;27;100752;-29
2022/09/24 06:08:21;;;;;;;11.15;5.60;;;;;;;14.28;85.32;101219.47;5054154;27;96518;-30
2022/09/24 06:10:46;;;;;;;15.13;6.28;;;;;;;14.27;85.75;101228.63;5054395;27;96812;-29
2022/09/24 06:13:16;;;;;;;13.48;6.15;;;;;;;14.28;85.60;101226.75;5035267;27;101410;-29
2022/09/24 06:15:42;;;;;;;15.70;5.97;;;;;;;14.29;85.69;101240.28;5035815;27;101293;-30
2022/09/24 06:18:09;;;;;;;12.77;5.78;;;;;;;14.26;86.09;101239.66;5035955;27;96583;-30
2022/09/24 06:20:35;;;;;;;11.80;5.35;;;;;;;14.28;85.84;101246.72;5053834;27;96802;-29
2022/09/24 06:23:01;;;;;;;11.55;5.22;;;;;;;14.28;85.70;101243.09;5035441;27;101017;-30
2022/09/24 06:25:27;;;;;;;11.38;4.90;;;;;;;14.28;86.26;101244.00;5035433;27;100681;-29
2022/09/24 06:27:59;;;;;;;11.68;5.40;;;;;;;14.30;85.61;101250.22;5035740;27;96959;-29
2022/09/24 06:30:29;;;;;;;10.18;5.32;;;;;;;14.27;85.95;101252.28;5035911;27;96809;-29
2022/09/24 06:33:00;;;;;;;12.38;5.60;;;;;;;14.30;85.87;101250.22;5053759;27;100073;-29
2022/09/24 06:35:26;;;;;;;11.70;4.55;;;;;;;14.30;85.84;101258.41;5035757;27;101138;-31
2022/09/24 06:37:52;;;;;;;14.52;5.65;;;;;;;14.28;86.16;101257.63;5053473;27;96664;-30
2022/09/24 06:40:17;;;;;;;11.77;5.20;;;;;;;14.28;85.87;101254.91;5054000;27;96705;-29
2022/09/24 06:42:42;;;;;;;10.73;4.78;;;;;;;14.28;85.79;101260.34;5053751;27;98089;-29
2022/09/24 06:45:08;;;;;;;11.30;5.82;;;;;;;14.25;86.36;101255.09;5053657;27;97985;-31
2022/09/24 06:47:34;;;;;;;9.40;4.75;;;;;;;14.22;86.07;101256.19;5035517;27;96529;-29
2022/09/24 06:49:59;;;;;;;10.00;4.68;;;;;;;14.22;86.34;101256.19;5053744;27;96736;-29
2022/09/24 06:52:28;;;;;;;11.52;4.60;;;;;;;14.24;86.57;101264.28;5053490;27;98199;-28
2022/09/24 06:54:54;;;;;;;8.23;3.95;;;;;;;14.22;86.31;101260.78;5035462;27;102002;-29
2022/09/24 06:57:20;;;;;;;10.18;4.82;;;;;;;14.23;86.28;101259.81;5035374;27;96696;-29
2022/09/24 06:59:45;;;;;;;11.32;4.82;;;;;;;14.24;86.22;101267.84;5053409;27;96872;-30
2022/09/24 07:02:11;;;;;;;10.07;4.05;;;;;;;14.29;86.55;101272.13;5034480;27;98042;-29
2022/09/24 07:04:36;;;;;;;10.05;4.30;;;;;;;14.26;86.27;101269.63;5052572;27;97360;-29
2022/09/24 07:09:48;;;;;;;5.38;2.80;;;;;;;14.20;86.91;101266.31;5053918;27;96652;-31
2022/09/24 07:12:13;;;;;;;6.18;3.08;;;;;;;14.21;87.03;101273.53;5053172;27;97962;-29
2022/09/24 07:14:38;;;;;;;8.65;2.70;;;;;;;14.18;87.54;101278.31;5053536;27;97239;-29
2022/09/24 07:17:04;;;;;;;3.72;1.92;;;;;;;14.18;86.77;101279.22;5053673;27;96584;-29
2022/09/24 07:19:29;;;;;;;6.75;1.50;;;;;;;14.15;87.14;101275.81;5053063;27;96853;-28
2022/09/24 07:21:54;;;;;;;2.10;1.33;;;;;;;14.16;86.55;101289.34;5052985;27;99751;-30
2022/09/24 07:24:20;;;;;;;2.10;0.77;;;;;;;14.18;86.93;101289.22;5053193;27;97973;-29
2022/09/24 07:26:45;;;;;;;3.35;0.63;;;;;;;14.13;87.37;101286.81;5034208;27;96638;-30
2022/09/24 07:29:10;;;;;;;4.15;0.93;;;;;;;14.13;86.52;101283.22;5053185;27;96728;-29
2022/09/24 07:31:36;;;;;;;0.55;0.30;;;;;;;14.16;86.78;101291.19;5053182;27;98042;-30
2022/09/24 07:34:01;;;;;;;2.50;0.50;;;;;;;14.16;87.00;101294.78;5052784;27;97723;-29
2022/09/24 07:36:29;;;;;;;1.73;0.65;;;;;;;14.17;87.22;101292.94;5053491;27;96980;-30
2022/09/24 07:38:55;;;;;;;4.78;0.90;;;;;;;14.16;87.11;101302.97;5052929;27;96840;-29
2022/09/24 07:41:20;;;;;;;4.30;0.68;;;;;;;14.12;87.43;101298.69;5052775;27;99156;-29
2022/09/24 07:43:46;;;;;;;6.38;0.85;;;;;;;14.11;87.07;101298.78;5053164;27;97842;-29
2022/09/24 07:46:11;;;;;;;2.40;0.75;;;;;;;14.11;87.73;101307.84;5052762;27;96719;-29
2022/09/24 07:48:36;;;;;;;3.20;0.77;;;;;;;14.08;87.08;101308.03;5052951;27;97433;-29
2022/09/24 07:51:02;;;;;;;6.28;0.85;;;;;;;14.11;88.11;101312.41;5052449;27;97862;-29
2022/09/24 07:53:27;;;;;;;5.07;0.80;;;;;;;14.12;86.88;101311.44;5052494;27;99244;-29
2022/09/24 07:55:57;;;;;;;2.70;0.70;;;;;;;14.13;87.81;101315.91;5052757;27;96755;-30
2022/09/24 07:58:23;;;;;;;0.98;0.57;;;;;;;14.11;87.81;101307.84;5034548;27;96696;-30
2022/09/24 08:00:48;;;;;;;3.13;0.65;;;;;;;14.12;87.83;101323.22;5052664;27;97847;-31
2022/09/24 08:03:14;;;;;;;13.88;0.75;;;;;;;14.09;86.66;101308.94;5052442;27;97325;-29
2022/09/24 08:05:44;;;;;;;1.75;0.68;;;;;;;14.08;87.88;101318.94;5052837;27;96534;-30
2022/09/24 08:08:09;;;;;;;2.28;0.82;;;;;;;14.08;87.44;101331.69;5052931;27;96877;-29
2022/09/24 08:10:35;;;;;;;4.38;0.57;;;;;;;14.10;87.09;101329.75;5052511;27;97319;-28
2022/09/24 08:13:01;;;;;;;1.90;0.65;;;;;;;14.09;87.28;101330.75;5052326;27;97295;-29
2022/09/24 08:15:26;;;;;;;2.10;0.60;;;;;;;14.08;87.90;101331.69;5051730;27;96611;-29
2022/09/24 08:17:51;;;;;;;1.63;0.93;;;;;;;14.11;87.32;101332.38;5052533;27;96983;-30
2022/09/24 08:20:17;;;;;;;1.77;0.98;;;;;;;14.13;87.69;101340.41;5051856;27;97885;-29
2022/09/24 08:22:43;;;;;;;1.75;0.73;;;;;;;14.14;87.02;101339.47;5052352;27;97760;-30
2022/09/24 08:25:08;;;;;;;1.20;0.65;;;;;;;14.17;87.06;101340.09;5052227;27;96662;-29
2022/09/24 08:27:35;;;;;;;4.53;0.70;;;;;;;14.19;86.76;101349.06;5052247;27;96831;-28
2022/09/24 08:30:02;;;;;;;8.70;0.77;;;;;;;14.20;87.53;101349.91;5051669;27;99414;-29
2022/09/24 08:32:28;;;;;;;6.22;1.25;;;;;;;14.18;87.29;101347.31;5033902;27;101101;-29
2022/09/24 08:34:53;;;;;;;5.70;0.82;;;;;;;14.19;86.70;101353.63;5033977;27;96619;-29
2022/09/24 08:37:19;;;;;;;5.32;0.93;;;;;;;14.17;87.14;101361.03;5033903;27;97002;-29
2022/09/24 08:39:44;;;;;;;3.40;0.77;;;;;;;14.19;87.01;101359.97;5051705;27;97887;-30
2022/09/24 08:42:19;;;;;;;4.03;0.85;;;;;;;14.18;86.82;101362.78;5052135;27;97316;-29
2022/09/24 08:47:59;;;;;;;4.03;0.93;;;;;;;14.18;87.03;101373.66;5052605;27;96624;-29
2022/09/24 08:50:31;;;;;;;4.07;0.95;;;;;;;14.11;86.85;101375.06;5051811;27;99177;-30
2022/09/24 08:53:22;;;;;;;3.90;0.73;;;;;;;14.12;86.87;101374.97;5033539;27;101053;-32
2022/09/24 08:56:09;;;;;;;5.85;0.85;;;;;;;14.14;86.58;101380.34;5033755;27;96674;-29
2022/09/24 08:58:37;;;;;;;4.43;0.65;;;;;;;14.17;86.81;101386.44;5033972;27;97780;-30
2022/09/24 09:01:06;;;;;;;13.00;0.82;;;;;;;14.16;86.71;101386.56;5051623;27;99356;-30
2022/09/24 09:03:40;;;;;;;2.67;0.90;;;;;;;14.19;86.72;101386.34;5033038;27;100718;-31
2022/09/24 09:06:32;;;;;;;1.98;0.65;;;;;;;14.19;86.51;101386.34;5033234;27;97160;-29
2022/09/24 09:09:11;;;;;;;0.40;0.30;;;;;;;14.18;86.42;101388.19;5033565;27;97006;-31
2022/09/24 09:11:39;;;;;;;3.22;0.85;;;;;;;14.15;86.52;101385.66;5033343;27;100848;-30
2022/09/24 09:14:14;;;;;;;5.28;0.80;;;;;;;14.11;86.41;101381.41;5032791;27;100989;-30
2022/09/24 09:16:54;;;;;;;1.98;0.55;;;;;;;14.07;86.43;101381.72;5033331;27;96620;-29
2022/09/24 09:19:26;;;;;;;0.82;0.43;;;;;;;14.06;86.30;101380.81;5051136;27;96708;-29
2022/09/24 09:22:09;;;;;;;0.82;0.50;;;;;;;14.07;86.04;101384.44;5051769;27;97444;-29
2022/09/24 09:24:47;;;;;;;2.45;0.70;;;;;;;14.06;86.10;101396.31;5033532;27;101211;-29
2022/09/24 09:27:14;;;;;;;9.45;0.73;;;;;;;14.03;86.05;101387.34;5053389;27;96657;-29
2022/09/24 09:29:42;;;;;;;2.60;0.57;;;;;;;14.06;86.22;101391.72;5036544;27;96862;-29
2022/09/24 09:32:42;;;;;;;4.78;0.77;;;;;;;14.07;85.63;101389.91;5054317;27;97239;-30
2022/09/24 09:35:22;;;;;;;3.78;0.60;;;;;;;14.07;85.66;101398.94;5055006;27;97455;-29
2022/09/24 09:38:10;;;;;;;0.82;0.50;;;;;;;14.01;85.94;101394.78;5036542;27;96507;-29
2022/09/24 09:40:42;;;;;;;1.90;0.73;;;;;;;14.06;85.92;101396.31;5036644;27;96750;-29
2022/09/24 09:43:10;;;;;;;3.72;0.70;;;;;;;14.07;85.61;101398.94;5054215;27;99439;-29
2022/09/24 09:45:53;;;;;;;2.72;0.75;;;;;;;14.06;85.90;101404.47;5036361;27;100757;-29
2022/09/24 09:48:23;;;;;;;2.42;0.55;;;;;;;14.05;85.73;101402.75;5036596;27;96716;-30
2022/09/24 09:50:51;;;;;;;8.00;0.93;;;;;;;14.08;85.71;101395.22;5036752;27;96931;-29
2022/09/24 09:53:19;;;;;;;4.45;0.60;;;;;;;14.03;85.49;101397.38;5036105;27;99162;-29
2022/09/24 09:55:54;;;;;;;2.28;0.88;;;;;;;14.03;85.64;101403.69;5035979;27;101529;-30
2022/09/24 09:58:26;;;;;;;3.78;0.90;;;;;;;14.09;85.83;101412.47;5035973;27;97537;-29
2022/09/24 10:01:01;;;;;;;6.05;0.85;;;;;;;14.14;85.61;101413.03;5036232;27;96703;-30
2022/09/24 10:03:50;;;;;;;1.67;0.63;;;;;;;14.17;85.43;101400.06;5036045;27;100814;-29
2022/09/24 10:06:26;;;;;;;4.68;0.73;;;;;;;14.21;85.30;101407.03;5039317;27;97951;-29
2022/09/24 10:08:53;;;;;;;2.95;0.70;;;;;;;14.16;85.10;101401.03;5035564;27;97639;-30
2022/09/24 10:11:18;;;;;;;1.90;0.70;;;;;;;14.18;85.07;101406.38;5035985;27;96834;-29
2022/09/24 10:14:07;;;;;;;12.85;0.90;;;;;;;14.16;85.04;101411.06;5053859;27;99208;-29
2022/09/24 10:16:42;;;;;;;6.32;0.88;;;;;;;14.12;85.36;101413.13;5035464;27;100770;-29
2022/09/24 10:19:23;;;;;;;8.38;1.25;;;;;;;14.12;85.26;101421.28;5035922;27;96729;-29
2022/09/24 10:21:50;;;;;;;5.32;0.77;;;;;;;14.10;85.04;101411.47;5012543;28;96825;-29
2022/09/24 10:24:23;;;;;;;2.90;1.05;;;;;;;14.10;85.14;101419.66;5011670;28;101140;-29
2022/09/24 10:26:49;;;;;;;1.58;0.52;;;;;;;14.11;84.96;101419.56;5011148;28;101001;-30
2022/09/24 10:32:12;;;;;;;4.70;0.80;;;;;;;14.16;84.75;101424.69;5014287;28;96518;-30
2022/09/24 10:34:37;;;;;;;6.20;0.80;;;;;;;14.19;84.70;101424.47;5013564;28;97609;-29
2022/09/24 10:37:13;;;;;;;3.47;0.50;;;;;;;14.22;85.10;101429.72;5013716;28;97288;-30
2022/09/24 10:39:40;;;;;;;1.80;0.68;;;;;;;14.22;84.40;101427.84;5013554;28;96566;-30
2022/09/24 10:42:06;;;;;;;2.47;0.90;;;;;;;14.22;84.54;101429.72;5012432;28;96864;-29
2022/09/24 10:44:36;;;;;;;2.67;1.00;;;;;;;14.22;84.33;101425.13;5011921;28;101178;-29
2022/09/24 10:47:19;;;;;;;4.32;1.17;;;;;;;14.20;84.97;101434.38;5013215;28;97901;-30
2022/09/24 10:49:59;;;;;;;2.72;0.85;;;;;;;14.18;84.75;101428.16;5012741;28;96736;-29
2022/09/24 10:52:59;;;;;;;4.32;0.77;;;;;;;14.19;85.10;101436.25;5012058;28;96874;-30
2022/09/24 10:55:38;;;;;;;3.05;0.80;;;;;;;14.23;85.02;101434.19;5011776;28;101196;-29
2022/09/24 10:58:21;;;;;;;4.30;0.93;;;;;;;14.26;85.08;101444.88;5011581;28;101214;-28
2022/09/24 11:00:57;;;;;;;3.38;0.63;;;;;;;14.25;85.70;101443.13;5013615;28;96563;-29
2022/09/24 11:03:55;;;;;;;3.22;0.82;;;;;;;14.24;85.28;101439.53;5011868;28;96653;-29
2022/09/24 11:06:48;;;;;;;1.65;0.75;;;;;;;14.27;86.12;101445.75;5011628;28;101862;-29
2022/09/24 11:09:38;;;;;;;5.90;0.70;;;;;;;14.25;85.90;101445.84;5013373;28;97867;-29
2022/09/24 11:12:14;;;;;;;2.20;0.85;;;;;;;14.22;86.52;101438.75;5011819;28;96767;-30
2022/09/24 11:14:51;;;;;;;4.30;1.02;;;;;;;14.28;85.81;101452.94;5011645;28;96768;-29
2022/09/24 11:17:26;;;;;;;3.75;0.63;;;;;;;14.30;85.49;101454.63;5010909;28;100905;-30
2022/09/24 11:20:13;;;;;;;4.50;0.80;;;;;;;14.27;85.82;101449.34;5016177;28;101117;-29
2022/09/24 11:23:03;;;;;;;0.93;0.60;;;;;;;14.28;86.08;101450.22;5032807;28;96436;-29
2022/09/24 11:25:47;;;;;;;1.52;0.82;;;;;;;14.24;85.72;101455.00;5033236;28;96628;-29
2022/09/24 11:28:44;;;;;;;2.63;0.75;;;;;;;14.24;85.71;101449.56;5033022;28;98111;-29
2022/09/24 11:31:14;;;;;;;5.47;0.77;;;;;;;14.26;85.96;101454.91;5031062;28;100894;-29
2022/09/24 11:33:51;;;;;;;1.52;0.63;;;;;;;14.25;85.87;101448.56;5031562;28;96822;-29
2022/09/24 11:36:29;;;;;;;1.23;0.50;;;;;;;14.27;85.66;101460.25;5033305;27;96659;-29
2022/09/24 11:39:32;;;;;;;4.75;0.88;;;;;;;14.31;85.89;101463.66;5031226;28;101227;-29
2022/09/24 11:42:20;;;;;;;4.13;0.90;;;;;;;14.31;86.27;101456.34;5032538;28;97789;-29
2022/09/24 11:44:53;;;;;;;2.22;0.70;;;;;;;14.30;85.55;101460.06;5030895;28;97101;-31
2022/09/24 11:47:25;;;;;;;1.17;0.70;;;;;;;14.33;85.52;101462.56;5031342;28;96836;-29
2022/09/24 11:50:19;;;;;;;2.92;0.82;;;;;;;14.26;85.67;101463.97;5030563;28;100821;-29
2022/09/24 11:53:01;;;;;;;3.40;1.08;;;;;;;14.33;85.69;101461.72;5031071;28;101442;-29
2022/09/24 11:55:36;;;;;;;;;;;;;;;14.38;85.57;101468.59;5031539;28;97117;-29